Time;durP1;ratioP1;P1;durP2;ratioP2;P2;SDS_P1;SDS_P2;PMS_P1;PMS_P2;Temp;Humidity;BMP_temperature;BMP_pressure;BME280_temperature;BME280_humidity;BME280_pressure;Samples;Min_cycle;Max_cycle;Signal;HPM_P1;HPM_P2
2022/05/18 00:00:27;;;;;;;4.53;4.20;;;;;;;19.54;74.31;94923.63;5064039;28;20202;-75
2022/05/18 00:02:54;;;;;;;5.57;4.97;;;;;;;19.52;74.96;94925.50;5063227;28;22835;-75
2022/05/18 00:05:21;;;;;;;4.38;4.07;;;;;;;19.59;74.57;94921.53;5064308;28;20697;-75
2022/05/18 00:07:50;;;;;;;6.35;5.82;;;;;;;19.75;74.08;94925.59;5063896;28;20263;-74
2022/05/18 00:10:17;;;;;;;4.40;4.10;;;;;;;19.81;73.62;94920.81;5064434;28;20256;-74
2022/05/18 00:12:45;;;;;;;5.47;4.97;;;;;;;19.51;74.19;94900.66;5063953;28;20223;-74
2022/05/18 00:15:14;;;;;;;4.88;4.57;;;;;;;19.37;75.03;94900.75;5063253;28;20645;-75
2022/05/18 00:17:41;;;;;;;4.50;4.30;;;;;;;19.29;75.86;94909.03;5064463;28;20225;-75
2022/05/18 00:20:09;;;;;;;4.95;4.43;;;;;;;19.23;75.01;94916.38;5063383;28;20944;-74
2022/05/18 00:22:44;;;;;;;4.90;4.50;;;;;;;19.02;75.50;94914.34;5063431;28;20197;-74
2022/05/18 00:25:12;;;;;;;4.68;4.25;;;;;;;18.76;76.30;94919.63;5063975;28;20251;-76
2022/05/18 00:27:39;;;;;;;4.93;4.40;;;;;;;18.72;76.66;94908.72;5066086;28;20271;-74
2022/05/18 00:30:07;;;;;;;5.03;4.60;;;;;;;18.87;75.84;94917.97;5063670;28;20657;-75
2022/05/18 00:32:34;;;;;;;5.00;4.70;;;;;;;18.95;75.49;94918.28;5065341;28;20194;-75
2022/05/18 00:35:00;;;;;;;4.25;4.05;;;;;;;19.06;75.35;94921.84;5064915;28;20650;-74
2022/05/18 00:37:27;;;;;;;5.10;4.80;;;;;;;18.94;76.24;94910.66;5064569;28;20832;-74
2022/05/18 00:39:54;;;;;;;4.75;3.97;;;;;;;18.97;75.20;94919.00;5065303;28;20212;-74
2022/05/18 00:42:25;;;;;;;6.03;4.50;;;;;;;18.58;75.77;94893.34;5066716;28;20202;-74
2022/05/18 00:44:52;;;;;;;5.18;4.80;;;;;;;18.35;77.28;94931.72;5064897;28;20681;-74
2022/05/18 00:47:20;;;;;;;5.45;5.05;;;;;;;17.93;79.49;94930.22;5065387;28;20688;-75
2022/05/18 00:49:52;;;;;;;4.80;4.50;;;;;;;17.56;81.19;94923.19;5065753;28;20194;-75
2022/05/18 00:52:25;;;;;;;4.55;4.25;;;;;;;17.50;81.39;94913.28;5067034;28;20206;-74
2022/05/18 00:54:53;;;;;;;5.15;4.85;;;;;;;17.64;81.17;94926.94;5067159;28;20210;-76
2022/05/18 00:57:27;;;;;;;5.10;4.80;;;;;;;17.55;81.65;94937.78;5067150;28;20756;-76
2022/05/18 00:59:58;;;;;;;4.60;4.40;;;;;;;17.93;79.89;94945.63;5066804;28;20201;-74
2022/05/18 01:02:34;;;;;;;4.68;4.47;;;;;;;18.08;78.36;94930.94;5064530;28;20255;-75
2022/05/18 01:05:05;;;;;;;4.80;4.32;;;;;;;18.31;77.34;94929.47;5065483;28;20688;-77
2022/05/18 01:07:37;;;;;;;4.60;4.30;;;;;;;18.36;77.07;94928.22;5065678;28;20255;-75
2022/05/18 01:10:07;;;;;;;4.55;4.30;;;;;;;18.56;75.92;94934.63;5065681;28;20216;-74
2022/05/18 01:12:35;;;;;;;4.90;4.70;;;;;;;18.53;75.78;94924.56;5064798;28;20201;-75
2022/05/18 01:15:05;;;;;;;5.53;5.05;;;;;;;18.59;75.68;94933.59;5064555;28;20677;-74
2022/05/18 01:17:35;;;;;;;4.43;4.22;;;;;;;18.46;76.48;94922.47;5065418;28;20212;-74
2022/05/18 01:20:05;;;;;;;4.80;4.50;;;;;;;18.72;74.93;94915.63;5067582;28;20326;-73
2022/05/18 01:22:41;;;;;;;5.32;4.90;;;;;;;18.67;75.22;94918.50;5072193;28;20202;-75
2022/05/18 01:25:19;;;;;;;5.35;4.88;;;;;;;18.73;75.05;94918.09;5072321;28;20205;-74
2022/05/18 01:27:47;;;;;;;5.60;5.10;;;;;;;18.59;75.79;94906.13;5073384;28;20775;-75
2022/05/18 01:30:14;;;;;;;5.38;4.90;;;;;;;18.55;75.64;94914.16;5074720;28;20217;-75
2022/05/18 01:32:44;;;;;;;4.85;4.63;;;;;;;18.32;76.40;94907.94;5068773;28;20987;-72
2022/05/18 01:35:14;;;;;;;5.32;5.03;;;;;;;18.41;75.70;94911.66;5068072;28;20193;-74
2022/05/18 01:37:40;;;;;;;4.38;4.00;;;;;;;18.48;75.25;94902.63;5067775;28;20200;-73
2022/05/18 01:40:14;;;;;;;8.38;5.18;;;;;;;18.27;75.71;94890.25;5068276;28;20235;-74
2022/05/18 01:42:47;;;;;;;4.80;4.30;;;;;;;18.33;75.81;94896.72;5068610;28;20205;-73
2022/05/18 01:45:15;;;;;;;4.50;4.30;;;;;;;18.43;75.31;94904.66;5067661;28;20200;-75
2022/05/18 01:47:43;;;;;;;5.22;4.93;;;;;;;18.34;75.86;94899.19;5068633;28;20258;-74
2022/05/18 01:50:13;;;;;;;4.82;4.40;;;;;;;18.36;75.97;94887.06;5067861;28;20227;-75
2022/05/18 01:52:40;;;;;;;5.32;5.03;;;;;;;18.31;76.07;94889.13;5068397;28;20625;-74
2022/05/18 01:55:08;;;;;;;4.82;4.53;;;;;;;18.17;76.46;94891.78;5068816;28;20282;-73
2022/05/18 01:57:37;;;;;;;5.20;5.00;;;;;;;18.18;76.70;94890.88;5068848;28;20206;-74
2022/05/18 02:00:05;;;;;;;4.75;4.35;;;;;;;18.43;75.12;94882.34;5067118;28;20258;-74
2022/05/18 02:02:34;;;;;;;5.38;4.97;;;;;;;18.50;74.54;94893.06;5067929;28;20201;-74
2022/05/18 02:05:01;;;;;;;5.05;4.75;;;;;;;18.63;73.74;94884.41;5068164;28;20340;-75
2022/05/18 02:07:28;;;;;;;4.65;4.43;;;;;;;18.65;73.60;94894.63;5067455;28;20197;-75
2022/05/18 02:09:54;;;;;;;4.13;3.92;;;;;;;18.72;72.67;94892.44;5068376;28;20869;-75
2022/05/18 02:12:21;;;;;;;4.22;3.92;;;;;;;18.38;73.35;94873.28;5068356;28;20225;-75
2022/05/18 02:14:48;;;;;;;5.18;4.78;;;;;;;18.45;73.54;94884.81;5067519;28;20197;-75
2022/05/18 02:17:15;;;;;;;4.68;4.28;;;;;;;18.44;73.18;94873.69;5067557;28;20559;-75
2022/05/18 02:19:43;;;;;;;4.05;3.75;;;;;;;18.54;72.52;94886.78;5067955;28;20840;-75
2022/05/18 02:22:10;;;;;;;4.85;4.55;;;;;;;18.25;73.48;94881.81;5067648;28;20293;-75
2022/05/18 02:24:37;;;;;;;3.72;3.42;;;;;;;18.04;74.69;94885.00;5067283;28;20197;-75
2022/05/18 02:27:04;;;;;;;4.18;3.65;;;;;;;18.02;74.59;94885.09;5067562;28;20250;-75
2022/05/18 02:29:31;;;;;;;3.42;2.88;;;;;;;18.20;74.25;94883.88;5067368;28;20716;-75
2022/05/18 02:31:57;;;;;;;3.10;3.00;;;;;;;18.15;73.86;94892.81;5066922;28;20226;-75
2022/05/18 02:34:24;;;;;;;4.35;4.03;;;;;;;18.24;74.08;94881.94;5067846;28;20206;-75
2022/05/18 02:36:52;;;;;;;3.45;3.25;;;;;;;18.39;73.77;94890.34;5067247;28;20202;-75
2022/05/18 02:39:20;;;;;;;3.17;3.08;;;;;;;18.51;73.29;94894.69;5067567;28;20682;-75
2022/05/18 02:41:48;;;;;;;3.47;3.17;;;;;;;18.41;73.16;94891.09;5067762;28;20296;-76
2022/05/18 02:44:15;;;;;;;3.50;3.30;;;;;;;18.40;73.21;94890.25;5066723;28;20688;-74
2022/05/18 02:46:41;;;;;;;3.47;3.28;;;;;;;18.20;73.50;94889.00;5064995;28;20202;-75
2022/05/18 02:49:08;;;;;;;3.80;3.45;;;;;;;18.21;73.77;94882.94;5066713;28;20193;-76
2022/05/18 02:51:35;;;;;;;3.38;3.17;;;;;;;18.12;74.02;94880.97;5066858;28;20222;-75
2022/05/18 02:56:05;;;;;;;3.38;3.17;;;;;;;18.31;73.28;94888.31;5067628;28;20700;-76
2022/05/18 02:56:49;;;;;;;3.95;3.67;;;;;;;18.30;73.60;94882.34;5066023;28;20225;-75
2022/05/18 02:59:16;;;;;;;3.97;3.78;;;;;;;18.52;72.60;94891.19;5066357;28;20650;-75
2022/05/18 03:01:43;;;;;;;5.65;3.67;;;;;;;18.58;72.09;94898.47;5065797;28;20266;-75
2022/05/18 03:04:09;;;;;;;3.90;3.60;;;;;;;18.66;71.60;94898.84;5065491;28;20270;-74
2022/05/18 03:06:37;;;;;;;3.55;3.30;;;;;;;18.41;72.82;94898.81;5064342;28;20213;-75
2022/05/18 03:09:06;;;;;;;3.63;3.42;;;;;;;18.36;73.30;94897.34;5063796;28;20292;-75
2022/05/18 03:11:33;;;;;;;3.40;3.20;;;;;;;18.45;72.94;94913.13;5064526;28;20230;-75
2022/05/18 03:14:00;;;;;;;3.10;3.00;;;;;;;18.33;73.45;94907.84;5062533;28;21009;-75
2022/05/18 03:16:29;;;;;;;3.35;3.15;;;;;;;18.25;73.71;94901.56;5062918;28;20228;-76
2022/05/18 03:18:55;;;;;;;4.20;3.60;;;;;;;18.59;72.50;94902.72;5063406;28;20296;-75
2022/05/18 03:24:10;;;;;;;4.70;4.20;;;;;;;18.66;72.03;94909.13;5063405;28;20270;-76
2022/05/18 03:26:38;;;;;;;4.00;3.75;;;;;;;18.69;71.84;94914.06;5063545;28;20194;-75
2022/05/18 03:29:05;;;;;;;4.80;4.50;;;;;;;18.80;71.38;94906.47;5064628;28;20252;-75
2022/05/18 03:31:32;;;;;;;4.25;4.03;;;;;;;18.62;72.72;94912.84;5063857;28;21145;-77
2022/05/18 03:33:59;;;;;;;5.35;4.10;;;;;;;18.65;72.03;94912.63;5063938;28;20623;-76
2022/05/18 03:36:26;;;;;;;3.75;3.55;;;;;;;18.69;72.13;94919.22;5064379;28;20205;-76
2022/05/18 03:38:54;;;;;;;6.22;4.72;;;;;;;18.87;71.45;94917.97;5064564;28;20290;-75
2022/05/18 03:41:22;;;;;;;5.00;4.50;;;;;;;18.95;71.37;94915.69;5065006;28;20202;-76
2022/05/18 03:43:49;;;;;;;4.65;4.25;;;;;;;19.01;71.11;94924.75;5066119;28;20653;-76
2022/05/18 03:46:16;;;;;;;4.47;4.10;;;;;;;18.93;71.74;94935.56;5066173;28;20205;-75
2022/05/18 03:48:43;;;;;;;5.10;4.32;;;;;;;19.00;71.51;94923.94;5064559;28;20206;-75
2022/05/18 03:51:12;;;;;;;4.50;4.20;;;;;;;18.87;71.91;94930.84;5065321;28;20617;-75
2022/05/18 03:53:39;;;;;;;4.47;4.18;;;;;;;18.79;72.47;94932.31;5065905;28;20205;-75
2022/05/18 03:56:07;;;;;;;6.32;4.70;;;;;;;18.68;72.83;94927.88;5066260;28;20206;-76
2022/05/18 03:58:35;;;;;;;5.53;5.20;;;;;;;18.88;72.59;94919.63;5064730;28;20700;-75
2022/05/18 04:01:08;;;;;;;6.40;5.80;;;;;;;18.89;72.68;94923.84;5065386;28;21007;-76
2022/05/18 04:03:36;;;;;;;14.60;11.63;;;;;;;19.02;72.13;94927.22;5065753;28;20275;-75
2022/05/18 04:06:03;;;;;;;10.27;7.80;;;;;;;19.03;72.20;94923.72;5065444;28;20214;-75
2022/05/18 04:08:30;;;;;;;6.70;6.10;;;;;;;18.99;72.39;94922.28;5064980;28;20301;-75
2022/05/18 04:10:57;;;;;;;7.57;6.38;;;;;;;19.26;72.57;94929.88;5065621;28;20197;-75
2022/05/18 04:13:25;;;;;;;5.88;5.30;;;;;;;19.26;71.66;94926.47;5065412;28;20306;-75
2022/05/18 04:15:55;;;;;;;6.30;5.30;;;;;;;19.32;70.89;94931.16;5064646;28;20214;-74
2022/05/18 04:18:23;;;;;;;5.50;5.07;;;;;;;19.28;71.63;94940.06;5065037;28;20250;-75
2022/05/18 04:20:51;;;;;;;8.88;8.18;;;;;;;19.30;71.46;94940.78;5065635;28;20726;-75
2022/05/18 04:23:18;;;;;;;10.07;9.05;;;;;;;19.41;71.65;94938.25;5065938;28;20312;-75
2022/05/18 04:25:45;;;;;;;8.50;7.90;;;;;;;19.16;72.84;94939.16;5065376;28;20197;-76
2022/05/18 04:28:14;;;;;;;7.75;5.35;;;;;;;19.41;71.18;94933.09;5065115;28;20225;-76
2022/05/18 04:30:42;;;;;;;6.05;5.68;;;;;;;19.48;71.60;94934.34;5065669;28;20309;-75
2022/05/18 04:33:11;;;;;;;6.07;5.63;;;;;;;19.32;72.43;94928.59;5064010;28;20237;-75
2022/05/18 04:35:38;;;;;;;8.43;7.55;;;;;;;19.32;72.34;94928.59;5063169;28;20728;-75
2022/05/18 04:38:06;;;;;;;9.05;8.38;;;;;;;19.57;71.86;94938.84;5063586;28;20201;-75
2022/05/18 04:40:33;;;;;;;7.20;6.78;;;;;;;19.40;72.51;94944.34;5064154;28;20708;-75
2022/05/18 04:43:00;;;;;;;8.98;8.13;;;;;;;19.48;72.16;94931.75;5061552;28;20379;-74
2022/05/18 04:45:27;;;;;;;6.45;5.85;;;;;;;19.40;72.93;94930.63;5063312;28;20904;-74
2022/05/18 04:47:53;;;;;;;7.22;6.63;;;;;;;19.47;72.39;94937.84;5064675;28;20562;-75
2022/05/18 04:50:23;;;;;;;7.10;6.55;;;;;;;19.29;73.45;94944.28;5064996;28;20730;-76
2022/05/18 04:52:49;;;;;;;7.03;6.40;;;;;;;19.26;73.74;94936.78;5065219;28;20704;-74
2022/05/18 04:55:16;;;;;;;7.47;6.90;;;;;;;19.43;73.00;94941.56;5069373;28;20260;-74
2022/05/18 04:57:43;;;;;;;6.65;6.22;;;;;;;19.64;71.92;94937.50;5069506;28;20206;-75
2022/05/18 05:00:13;;;;;;;8.27;6.32;;;;;;;19.49;72.15;94938.56;5069543;28;20246;-76
2022/05/18 05:02:41;;;;;;;9.23;7.47;;;;;;;19.58;72.04;94937.91;5069205;28;20335;-75
2022/05/18 05:05:10;;;;;;;6.55;6.05;;;;;;;19.65;71.85;94944.28;5069571;28;20213;-75
2022/05/18 05:07:38;;;;;;;7.55;6.97;;;;;;;19.58;72.32;94935.34;5069293;28;20262;-76
2022/05/18 05:10:07;;;;;;;7.40;6.65;;;;;;;19.52;72.83;94929.81;5068735;28;20703;-76
2022/05/18 05:12:34;;;;;;;8.45;7.50;;;;;;;19.63;72.61;94946.16;5069281;28;20233;-75
2022/05/18 05:15:02;;;;;;;7.10;6.55;;;;;;;19.64;72.31;94949.56;5069507;28;20206;-76
2022/05/18 05:17:29;;;;;;;8.02;7.10;;;;;;;19.63;72.47;94948.72;5069593;28;20272;-75
2022/05/18 05:19:57;;;;;;;7.22;6.60;;;;;;;19.55;73.37;94957.97;5069236;28;20600;-75
2022/05/18 05:22:24;;;;;;;8.98;8.18;;;;;;;19.50;73.21;94950.53;5068767;28;20198;-77
2022/05/18 05:24:52;;;;;;;8.48;7.88;;;;;;;19.28;74.05;94963.25;5068826;28;20720;-75
2022/05/18 05:27:19;;;;;;;8.85;8.10;;;;;;;19.37;73.91;94967.75;5069856;28;20209;-77
2022/05/18 05:29:46;;;;;;;10.07;9.13;;;;;;;19.30;74.89;94966.56;5068863;28;20201;-76
2022/05/18 05:32:13;;;;;;;9.20;8.15;;;;;;;19.30;74.05;94963.97;5069353;28;20290;-76
2022/05/18 05:34:40;;;;;;;26.88;14.43;;;;;;;19.31;74.41;94963.00;5068824;28;20198;-74
2022/05/18 05:37:07;;;;;;;15.52;10.48;;;;;;;19.45;73.94;94964.66;5068115;28;20206;-76
2022/05/18 05:39:34;;;;;;;15.52;11.05;;;;;;;19.33;73.83;94966.31;5068581;28;20206;-76
2022/05/18 05:42:02;;;;;;;9.07;8.27;;;;;;;19.26;74.29;94965.09;5068918;28;20202;-76
2022/05/18 05:44:29;;;;;;;11.57;9.60;;;;;;;19.34;74.63;94978.25;5068062;28;20302;-76
2022/05/18 05:46:56;;;;;;;9.52;8.68;;;;;;;19.31;74.31;94981.06;5068463;28;20251;-78
2022/05/18 05:49:23;;;;;;;9.65;8.82;;;;;;;19.22;74.82;94994.59;5068704;28;20201;-76
2022/05/18 05:51:50;;;;;;;10.70;9.80;;;;;;;19.32;74.99;94985.28;5068562;28;20233;-77
2022/05/18 05:54:17;;;;;;;10.98;8.38;;;;;;;19.33;75.16;94997.22;5068565;28;20293;-75
2022/05/18 05:56:44;;;;;;;8.25;7.45;;;;;;;19.20;75.85;94996.44;5068565;28;20205;-76
2022/05/18 05:59:13;;;;;;;8.02;7.38;;;;;;;18.89;78.05;94993.34;5068561;28;20201;-75
2022/05/18 06:01:41;;;;;;;8.15;7.40;;;;;;;18.98;77.21;95005.63;5068164;28;20717;-75
2022/05/18 06:04:07;;;;;;;9.80;9.07;;;;;;;19.05;77.74;95002.66;5067292;28;20202;-77
2022/05/18 06:06:37;;;;;;;10.50;7.95;;;;;;;18.86;79.21;95008.19;5067263;28;20309;-78
2022/05/18 06:09:07;;;;;;;8.98;8.18;;;;;;;18.81;79.45;95000.75;5069090;28;20205;-77
2022/05/18 06:11:34;;;;;;;9.20;8.30;;;;;;;18.73;80.83;94997.06;5067929;28;20703;-76
2022/05/18 06:14:01;;;;;;;9.48;8.77;;;;;;;18.90;79.50;95009.63;5068141;28;20590;-76
2022/05/18 06:16:29;;;;;;;11.75;7.47;;;;;;;18.78;79.64;95001.00;5067710;28;20190;-75
2022/05/18 06:18:56;;;;;;;8.02;7.30;;;;;;;18.78;79.87;95003.56;5067419;28;20221;-77
2022/05/18 06:21:23;;;;;;;8.10;7.50;;;;;;;18.88;80.29;95017.47;5067488;28;20236;-76
2022/05/18 06:23:50;;;;;;;7.22;6.82;;;;;;;18.91;79.23;95017.25;5068144;28;20292;-77
2022/05/18 06:26:17;;;;;;;8.45;7.35;;;;;;;18.62;80.31;94995.19;5068452;28;20668;-76
2022/05/18 06:28:44;;;;;;;8.02;7.30;;;;;;;18.85;79.69;95022.81;5067677;28;20666;-75
2022/05/18 06:31:11;;;;;;;7.03;6.50;;;;;;;18.74;80.35;95016.75;5067455;28;20320;-75
2022/05/18 06:33:40;;;;;;;6.93;6.53;;;;;;;18.96;79.63;95027.25;5067674;28;20233;-74
2022/05/18 06:36:07;;;;;;;8.18;7.47;;;;;;;18.97;79.47;95022.00;5067404;28;20198;-75
2022/05/18 06:38:34;;;;;;;7.68;7.07;;;;;;;18.69;80.39;95017.03;5067907;28;20205;-75
2022/05/18 06:43:45;;;;;;;6.82;6.28;;;;;;;18.63;81.29;95020.84;5066825;28;20235;-74
2022/05/18 06:46:11;;;;;;;8.13;7.43;;;;;;;18.99;79.29;95029.63;5067314;28;20210;-74
2022/05/18 06:48:41;;;;;;;7.88;7.38;;;;;;;19.03;79.62;95034.47;5067946;28;20206;-75
2022/05/18 06:51:08;;;;;;;7.68;6.93;;;;;;;19.05;79.76;95033.56;5067690;28;20668;-75
2022/05/18 06:53:35;;;;;;;8.75;7.75;;;;;;;19.11;79.14;95022.81;5067318;28;20240;-75
2022/05/18 06:56:02;;;;;;;8.18;7.55;;;;;;;19.29;78.59;95037.03;5067455;28;20247;-74
2022/05/18 06:58:29;;;;;;;7.95;7.38;;;;;;;19.31;79.06;95040.31;5066908;28;20259;-75
2022/05/18 07:00:56;;;;;;;10.52;8.27;;;;;;;19.38;78.17;95039.81;5066866;28;20202;-74
2022/05/18 07:03:23;;;;;;;10.40;9.40;;;;;;;19.52;77.95;95040.66;5066758;28;20197;-74
2022/05/18 07:05:51;;;;;;;9.15;8.10;;;;;;;19.55;76.61;95022.41;5067014;28;21841;-75
2022/05/18 07:08:18;;;;;;;9.32;8.40;;;;;;;19.80;76.72;95034.38;5067029;28;20202;-75
2022/05/18 07:10:44;;;;;;;10.20;8.40;;;;;;;19.65;77.08;95031.94;5066061;28;20259;-74
2022/05/18 07:13:16;;;;;;;10.15;8.77;;;;;;;19.85;75.52;95037.47;5066523;28;20326;-75
2022/05/18 07:15:43;;;;;;;18.70;10.35;;;;;;;20.03;74.63;95031.03;5067038;28;20714;-73
2022/05/18 07:18:10;;;;;;;6.93;6.53;;;;;;;20.00;74.74;95044.13;5067276;28;20209;-75
2022/05/18 07:20:37;;;;;;;7.47;6.97;;;;;;;19.93;74.83;95042.91;5067130;28;20282;-74
2022/05/18 07:23:05;;;;;;;8.23;7.53;;;;;;;19.92;75.27;95041.25;5066301;28;20209;-74
2022/05/18 07:25:32;;;;;;;8.05;7.45;;;;;;;19.91;75.68;95044.78;5066449;28;20263;-75
2022/05/18 07:27:59;;;;;;;8.35;7.75;;;;;;;19.87;75.68;95048.50;5066903;28;20193;-76
2022/05/18 07:30:26;;;;;;;11.13;7.70;;;;;;;19.81;75.76;95052.31;5066818;28;20217;-75
2022/05/18 07:32:53;;;;;;;11.00;9.05;;;;;;;19.86;75.78;95062.31;5065810;28;20225;-75
2022/05/18 07:35:20;;;;;;;9.38;8.55;;;;;;;19.99;75.23;95042.50;5066479;28;21789;-75
2022/05/18 07:37:46;;;;;;;8.32;7.55;;;;;;;20.02;75.27;95052.59;5066408;28;20644;-76
2022/05/18 07:40:15;;;;;;;9.75;8.27;;;;;;;20.09;73.98;95068.44;5066532;28;20606;-75
2022/05/18 07:42:41;;;;;;;8.73;7.88;;;;;;;20.16;74.23;95060.16;5066099;28;20673;-73
2022/05/18 07:45:10;;;;;;;8.20;7.53;;;;;;;20.19;74.29;95065.13;5066218;28;20201;-74
2022/05/18 07:47:36;;;;;;;8.05;7.55;;;;;;;20.08;73.99;95066.78;5066921;28;20206;-74
2022/05/18 07:50:04;;;;;;;13.45;8.38;;;;;;;20.11;74.28;95067.41;5065988;28;22163;-75
2022/05/18 07:52:31;;;;;;;8.90;8.27;;;;;;;20.15;74.15;95073.19;5065526;28;20221;-75
2022/05/18 07:54:58;;;;;;;10.48;9.45;;;;;;;20.12;72.79;95069.06;5065801;28;20201;-74
2022/05/18 07:57:26;;;;;;;9.45;8.75;;;;;;;20.07;73.77;95067.72;5066373;28;20213;-75
2022/05/18 07:59:59;;;;;;;9.18;8.45;;;;;;;20.36;73.35;95072.47;5066219;28;20203;-74
2022/05/18 08:02:25;;;;;;;10.13;9.32;;;;;;;20.51;72.61;95069.75;5065179;28;20270;-76
2022/05/18 08:04:52;;;;;;;9.25;8.57;;;;;;;20.60;72.57;95076.81;5065336;28;20201;-75
2022/05/18 08:07:19;;;;;;;10.60;9.82;;;;;;;20.64;71.69;95075.66;5065838;28;20597;-77
2022/05/18 08:15:16;;;;;;;13.50;9.05;;;;;;;20.45;71.41;95083.09;5065915;28;20313;-75
2022/05/18 08:17:44;;;;;;;9.50;8.60;;;;;;;20.21;71.90;95067.59;5065347;28;20205;-74
2022/05/18 08:20:14;;;;;;;9.95;9.15;;;;;;;20.55;71.22;95082.31;5065979;28;20286;-75
2022/05/18 08:22:41;;;;;;;9.05;8.45;;;;;;;20.38;71.52;95078.38;5065211;28;20223;-74
2022/05/18 08:25:10;;;;;;;9.40;8.73;;;;;;;20.40;70.71;95080.03;5064819;28;20235;-76
2022/05/18 08:27:40;;;;;;;8.80;8.05;;;;;;;20.64;70.83;95086.81;5065213;28;20212;-75
2022/05/18 08:30:09;;;;;;;8.77;8.07;;;;;;;20.81;69.52;95080.41;5064761;28;20225;-73
2022/05/18 08:32:36;;;;;;;8.90;8.30;;;;;;;20.91;69.40;95083.16;5065869;28;20232;-74
2022/05/18 08:35:04;;;;;;;8.45;7.78;;;;;;;20.93;68.97;95089.84;5064770;28;20292;-74
2022/05/18 08:37:31;;;;;;;7.30;6.72;;;;;;;21.00;67.59;95091.06;5065706;28;20293;-74
2022/05/18 08:39:57;;;;;;;7.70;7.00;;;;;;;21.24;66.92;95090.19;5065986;28;20198;-76
2022/05/18 08:42:24;;;;;;;8.15;7.47;;;;;;;21.57;66.30;95089.38;5065489;28;20194;-78
2022/05/18 08:44:52;;;;;;;7.53;6.97;;;;;;;22.11;64.47;95092.09;5065417;28;20198;-74
2022/05/18 08:47:28;;;;;;;7.75;7.25;;;;;;;22.38;62.79;95083.91;5065668;28;20201;-75
2022/05/18 08:50:00;;;;;;;8.50;8.00;;;;;;;22.99;62.14;95085.00;5065483;28;20259;-74
2022/05/18 08:52:57;;;;;;;7.95;7.35;;;;;;;22.82;61.99;95082.13;5065059;28;22179;-74
2022/05/18 08:55:46;;;;;;;8.07;6.90;;;;;;;22.57;61.94;95078.06;5065189;28;20225;-74
2022/05/18 08:58:20;;;;;;;8.05;7.07;;;;;;;22.23;62.93;95067.84;5065720;28;20202;-74
2022/05/18 09:00:54;;;;;;;7.50;7.10;;;;;;;22.32;63.13;95063.69;5065611;28;20186;-75
2022/05/18 09:03:25;;;;;;;7.28;6.68;;;;;;;22.60;63.32;95062.28;5064680;28;20201;-74
2022/05/18 09:05:58;;;;;;;7.10;6.50;;;;;;;22.56;63.09;95055.72;5066366;28;20263;-75
2022/05/18 09:08:27;;;;;;;6.40;6.03;;;;;;;22.51;62.34;95057.88;5065138;28;20202;-74
2022/05/18 09:11:02;;;;;;;6.10;5.70;;;;;;;22.54;60.85;95047.25;5063806;28;20210;-73
2022/05/18 09:13:30;;;;;;;12.70;11.57;;;;;;;22.83;60.62;95040.53;5064307;28;20229;-74
2022/05/18 09:16:09;;;;;;;8.35;7.63;;;;;;;23.31;59.28;95063.34;5064308;28;20206;-74
2022/05/18 09:18:43;;;;;;;6.60;6.15;;;;;;;23.11;57.95;95020.13;5062436;28;20202;-78
2022/05/18 09:21:32;;;;;;;6.10;5.60;;;;;;;22.68;58.07;95052.97;5063429;28;20743;-77
2022/05/18 09:24:12;;;;;;;5.82;5.38;;;;;;;22.82;58.64;95051.84;5064615;28;20198;-77
2022/05/18 09:26:55;;;;;;;9.30;5.22;;;;;;;22.59;58.13;95032.97;5061317;28;20202;-77
2022/05/18 09:29:27;;;;;;;5.25;4.95;;;;;;;22.39;58.66;95044.13;5064653;28;20202;-77
2022/05/18 09:32:17;;;;;;;7.32;6.78;;;;;;;22.53;57.82;95038.66;5064010;28;20263;-76
2022/05/18 09:35:06;;;;;;;9.07;8.02;;;;;;;22.92;57.21;95037.22;5064147;28;20213;-77
2022/05/18 09:37:37;;;;;;;10.73;8.18;;;;;;;22.72;57.11;95035.41;5063836;28;20726;-76
2022/05/18 09:40:11;;;;;;;8.52;7.70;;;;;;;22.54;57.93;95031.69;5063811;28;20220;-77
2022/05/18 09:42:42;;;;;;;11.77;10.65;;;;;;;22.17;58.38;95026.09;5066526;28;20209;-78
2022/05/18 09:45:13;;;;;;;8.10;7.13;;;;;;;22.07;58.53;95023.41;5065904;28;20263;-79
2022/05/18 09:47:46;;;;;;;28.25;7.00;;;;;;;21.76;59.67;95021.56;5065264;28;20201;-78
2022/05/18 09:50:13;;;;;;;10.05;7.00;;;;;;;21.65;59.84;95032.75;5065297;28;20213;-75
2022/05/18 09:52:43;;;;;;;13.57;9.50;;;;;;;21.60;60.36;95030.50;5066613;28;20580;-77
2022/05/18 09:55:13;;;;;;;8.15;7.28;;;;;;;21.51;60.33;95041.56;5067113;28;20205;-78
2022/05/18 09:57:49;;;;;;;8.68;7.68;;;;;;;21.32;60.90;95012.88;5066305;28;21111;-77
2022/05/18 10:00:19;;;;;;;5.65;5.15;;;;;;;20.96;60.48;95032.81;5060856;28;20217;-78
2022/05/18 10:08:23;;;;;;;12.25;6.85;;;;;;;20.96;59.94;95050.88;5066683;28;20598;-78
2022/05/18 10:10:56;;;;;;;9.55;6.10;;;;;;;20.95;60.03;95049.25;5067489;28;20214;-76
2022/05/18 10:13:27;;;;;;;12.65;8.70;;;;;;;21.03;59.79;95054.63;5071827;28;20326;-77
2022/05/18 10:16:02;;;;;;;7.13;6.22;;;;;;;20.94;60.47;95063.09;5078985;28;20193;-77
2022/05/18 10:18:37;;;;;;;9.23;5.03;;;;;;;20.67;59.73;95070.28;5089484;28;20196;-77
2022/05/18 10:21:15;;;;;;;8.82;7.13;;;;;;;20.46;61.64;95053.78;5089534;28;20235;-77
2022/05/18 10:23:47;;;;;;;7.30;6.32;;;;;;;20.44;63.31;95079.69;5090447;28;20197;-78
2022/05/18 10:26:23;;;;;;;8.10;7.28;;;;;;;20.16;66.96;95085.16;5091304;28;20277;-76
2022/05/18 10:28:56;;;;;;;12.85;5.72;;;;;;;19.23;74.03;95109.59;5089603;28;20197;-76
2022/05/18 10:31:31;;;;;;;6.60;5.68;;;;;;;18.80;77.71;95106.44;5087529;28;20249;-77
2022/05/18 10:34:14;;;;;;;14.32;5.40;;;;;;;18.82;76.88;95114.88;5087753;28;20224;-76
2022/05/18 10:36:46;;;;;;;8.65;5.93;;;;;;;18.60;78.90;95126.56;5087824;28;20193;-76
2022/05/18 10:39:12;;;;;;;12.15;9.35;;;;;;;18.43;78.73;95123.38;5087079;28;20190;-77
2022/05/18 10:41:43;;;;;;;9.95;8.20;;;;;;;18.82;77.92;95138.03;5087149;28;20186;-76
2022/05/18 10:44:17;;;;;;;5.07;4.43;;;;;;;18.83;77.40;95130.22;5089124;28;20721;-77
2022/05/18 10:46:45;;;;;;;9.40;6.20;;;;;;;18.93;77.18;95151.06;5091009;28;20555;-75
2022/05/18 10:49:28;;;;;;;10.88;6.30;;;;;;;18.74;77.26;95148.84;5090992;28;20194;-76
2022/05/18 10:51:55;;;;;;;6.45;5.35;;;;;;;18.60;78.45;95144.56;5090762;28;20661;-76
2022/05/18 10:54:25;;;;;;;7.30;4.57;;;;;;;18.72;76.73;95150.72;5091205;28;20659;-75
2022/05/18 10:56:52;;;;;;;8.18;7.03;;;;;;;18.71;77.55;95161.09;5091174;28;20197;-76
2022/05/18 10:59:43;;;;;;;7.30;6.70;;;;;;;18.74;77.08;95164.31;5090904;28;20561;-77
2022/05/18 11:02:15;;;;;;;8.50;7.65;;;;;;;18.85;76.59;95159.28;5091321;28;20671;-77
2022/05/18 11:04:51;;;;;;;7.97;7.15;;;;;;;19.20;75.61;95161.31;5091165;28;20725;-78
2022/05/18 11:07:22;;;;;;;6.05;4.05;;;;;;;19.21;74.70;95168.13;5091497;28;20247;-77
2022/05/18 11:09:49;;;;;;;5.80;5.20;;;;;;;19.28;74.31;95162.47;5091226;28;20293;-76
2022/05/18 11:12:40;;;;;;;10.88;4.63;;;;;;;19.38;72.35;95181.53;5091091;28;20664;-76
2022/05/18 11:15:11;;;;;;;2.92;2.72;;;;;;;19.21;72.89;95181.84;5091357;28;20226;-75
2022/05/18 11:17:51;;;;;;;6.53;3.08;;;;;;;19.16;72.98;95193.34;5090963;28;20577;-75
2022/05/18 11:20:33;;;;;;;7.53;4.30;;;;;;;19.06;73.05;95182.81;5091254;28;20611;-76
2022/05/18 11:23:09;;;;;;;2.83;2.63;;;;;;;18.84;73.87;95185.94;5090938;28;20243;-76
2022/05/18 11:25:43;;;;;;;3.00;2.63;;;;;;;18.94;74.05;95197.31;5091017;28;20243;-76
2022/05/18 11:28:21;;;;;;;3.75;3.08;;;;;;;19.19;73.20;95194.00;5091350;28;20201;-73
2022/05/18 11:31:03;;;;;;;4.22;3.92;;;;;;;19.32;72.94;95199.16;5091013;28;20266;-76
2022/05/18 11:33:36;;;;;;;4.43;3.22;;;;;;;19.54;72.63;95202.03;5090972;28;20662;-75
2022/05/18 11:36:14;;;;;;;1.95;1.85;;;;;;;19.43;72.53;95195.88;5091029;28;20225;-76
2022/05/18 11:39:02;;;;;;;4.18;3.22;;;;;;;19.60;70.43;95201.59;5091375;28;20197;-76
2022/05/18 11:41:38;;;;;;;6.53;3.17;;;;;;;19.44;70.44;95216.41;5090914;28;20194;-76
2022/05/18 11:44:07;;;;;;;1.80;1.70;;;;;;;19.43;70.23;95209.59;5091118;28;20190;-77
2022/05/18 11:47:12;;;;;;;1.90;1.80;;;;;;;19.53;69.79;95221.00;5091514;28;20262;-77
2022/05/18 11:49:46;;;;;;;2.35;2.15;;;;;;;19.27;68.81;95227.00;5059721;28;20215;-76
2022/05/18 11:52:36;;;;;;;2.83;2.70;;;;;;;19.24;69.30;95238.31;5090588;28;20197;-75
2022/05/18 11:55:22;;;;;;;1.40;1.35;;;;;;;19.24;68.53;95240.06;5089676;28;20280;-75
2022/05/18 11:58:02;;;;;;;1.90;1.80;;;;;;;19.42;67.90;95228.56;5089270;28;20573;-76
2022/05/18 12:00:51;;;;;;;3.05;1.92;;;;;;;19.29;67.71;95243.19;5088415;28;20205;-76